sensor_id;sensor_type;location;lat;lon;timestamp;pressure;altitude;pressure_sealevel;temperature;humidity
9110;BME280;4590;51.462;6.692;2023-05-20T06:57:12;101972.00;;;17.59;46.04
9110;BME280;4590;51.462;6.692;2023-05-20T06:59:47;101959.19;;;17.49;45.99
9110;BME280;4590;51.462;6.692;2023-05-20T09:03:58;101916.22;;;17.81;47.21
9110;BME280;4590;51.462;6.692;2023-05-20T09:07:35;101912.13;;;17.70;47.24
9110;BME280;4590;51.462;6.692;2023-05-20T09:10:41;101911.47;;;17.91;47.19
9110;BME280;4590;51.462;6.692;2023-05-20T10:21:19;101915.84;;;18.43;46.02
9110;BME280;4590;51.462;6.692;2023-05-20T10:24:28;101902.75;;;18.35;46.16
9110;BME280;4590;51.462;6.692;2023-05-20T10:27:00;101888.00;;;18.35;46.12
9110;BME280;4590;51.462;6.692;2023-05-20T10:29:50;101886.84;;;18.36;46.37
9110;BME280;4590;51.462;6.692;2023-05-20T10:39:29;101899.97;;;18.35;46.36
9110;BME280;4590;51.462;6.692;2023-05-20T10:46:16;101895.81;;;18.50;46.90
9110;BME280;4590;51.462;6.692;2023-05-20T10:55:18;101879.75;;;18.47;47.09
9110;BME280;4590;51.462;6.692;2023-05-20T11:01:15;101875.34;;;18.46;46.79
9110;BME280;4590;51.462;6.692;2023-05-20T11:04:37;101880.13;;;18.37;47.27
9110;BME280;4590;51.462;6.692;2023-05-20T11:07:41;101875.22;;;18.34;47.39
9110;BME280;4590;51.462;6.692;2023-05-20T11:16:22;101869.97;;;18.41;47.21
9110;BME280;4590;51.462;6.692;2023-05-20T11:18:48;101874.03;;;18.43;46.81
9110;BME280;4590;51.462;6.692;2023-05-20T11:21:41;101873.91;;;18.40;47.02
9110;BME280;4590;51.462;6.692;2023-05-20T11:24:09;101888.13;;;18.55;46.45
9110;BME280;4590;51.462;6.692;2023-05-20T11:27:12;101862.09;;;18.34;47.24
9110;BME280;4590;51.462;6.692;2023-05-20T11:29:38;101871.72;;;18.45;46.94
9110;BME280;4590;51.462;6.692;2023-05-20T11:32:11;101867.13;;;18.49;47.08
9110;BME280;4590;51.462;6.692;2023-05-20T11:35:44;101867.78;;;18.55;46.86
9110;BME280;4590;51.462;6.692;2023-05-20T11:42:14;101862.34;;;18.67;48.06
9110;BME280;4590;51.462;6.692;2023-05-20T11:45:12;101876.06;;;18.81;47.03
9110;BME280;4590;51.462;6.692;2023-05-20T11:51:36;101857.53;;;18.85;46.95
9110;BME280;4590;51.462;6.692;2023-05-20T11:58:27;101821.44;;;18.80;47.29
9110;BME280;4590;51.462;6.692;2023-05-20T12:05:08;101813.97;;;19.01;47.43
9110;BME280;4590;51.462;6.692;2023-05-20T12:07:56;101812.41;;;19.12;47.15
9110;BME280;4590;51.462;6.692;2023-05-20T12:10:21;101820.28;;;19.10;46.99
9110;BME280;4590;51.462;6.692;2023-05-20T12:12:47;101828.47;;;19.15;47.04
9110;BME280;4590;51.462;6.692;2023-05-20T12:15:13;101812.75;;;19.11;47.16
9110;BME280;4590;51.462;6.692;2023-05-20T12:17:49;101802.63;;;19.27;47.37
9110;BME280;4590;51.462;6.692;2023-05-20T12:20:16;101801.88;;;19.39;47.32
9110;BME280;4590;51.462;6.692;2023-05-20T12:26:42;101784.72;;;19.70;46.61
9110;BME280;4590;51.462;6.692;2023-05-20T12:29:33;101796.22;;;19.68;46.19
9110;BME280;4590;51.462;6.692;2023-05-20T12:31:59;101797.69;;;19.86;46.50
9110;BME280;4590;51.462;6.692;2023-05-20T12:34:47;101797.63;;;19.95;46.41
9110;BME280;4590;51.462;6.692;2023-05-20T12:37:12;101801.94;;;20.05;45.64
9110;BME280;4590;51.462;6.692;2023-05-20T12:39:39;101786.13;;;20.09;45.71
9110;BME280;4590;51.462;6.692;2023-05-20T12:42:10;101784.72;;;20.15;45.72
9110;BME280;4590;51.462;6.692;2023-05-20T12:44:36;101782.06;;;20.18;45.40
9110;BME280;4590;51.462;6.692;2023-05-20T12:50:25;101772.53;;;20.19;45.48
9110;BME280;4590;51.462;6.692;2023-05-20T12:52:53;101770.91;;;20.30;45.04
9110;BME280;4590;51.462;6.692;2023-05-20T12:58:26;101768.41;;;20.50;45.23
9110;BME280;4590;51.462;6.692;2023-05-20T13:00:53;101770.16;;;20.54;44.66
9110;BME280;4590;51.462;6.692;2023-05-20T13:03:24;101772.47;;;20.64;44.77
9110;BME280;4590;51.462;6.692;2023-05-20T13:05:51;101762.44;;;20.63;44.58
9110;BME280;4590;51.462;6.692;2023-05-20T13:12:20;101767.59;;;20.74;44.34
9110;BME280;4590;51.462;6.692;2023-05-20T13:15:06;101763.97;;;20.73;43.98
9110;BME280;4590;51.462;6.692;2023-05-20T13:17:34;101749.88;;;20.57;43.54
9110;BME280;4590;51.462;6.692;2023-05-20T13:23:35;101757.78;;;20.67;43.25
9110;BME280;4590;51.462;6.692;2023-05-20T13:26:23;101749.38;;;20.80;43.10
9110;BME280;4590;51.462;6.692;2023-05-20T13:35:40;101748.47;;;20.88;42.76
9110;BME280;4590;51.462;6.692;2023-05-20T13:38:49;101746.13;;;20.90;42.09
9110;BME280;4590;51.462;6.692;2023-05-20T13:48:06;101739.13;;;20.84;42.42
9110;BME280;4590;51.462;6.692;2023-05-20T13:51:20;101722.84;;;20.74;42.12
9110;BME280;4590;51.462;6.692;2023-05-20T14:01:31;101727.84;;;20.68;42.30
9110;BME280;4590;51.462;6.692;2023-05-20T14:04:10;101720.41;;;20.72;42.18
9110;BME280;4590;51.462;6.692;2023-05-20T14:07:15;101708.59;;;20.79;41.99
9110;BME280;4590;51.462;6.692;2023-05-20T14:10:08;101712.00;;;20.72;41.77
9110;BME280;4590;51.462;6.692;2023-05-20T14:13:06;101710.72;;;20.70;42.25
9110;BME280;4590;51.462;6.692;2023-05-20T14:16:12;101701.59;;;20.85;42.21
9110;BME280;4590;51.462;6.692;2023-05-20T14:25:58;101690.09;;;20.74;41.89
9110;BME280;4590;51.462;6.692;2023-05-20T14:28:24;101685.56;;;20.70;41.78
9110;BME280;4590;51.462;6.692;2023-05-20T14:30:53;101690.69;;;20.67;41.65
9110;BME280;4590;51.462;6.692;2023-05-20T14:33:38;101687.41;;;20.65;42.02
9110;BME280;4590;51.462;6.692;2023-05-20T14:36:04;101683.56;;;20.70;41.85
9110;BME280;4590;51.462;6.692;2023-05-20T14:38:30;101691.84;;;20.66;42.17
9110;BME280;4590;51.462;6.692;2023-05-20T14:40:57;101680.03;;;20.85;41.97
9110;BME280;4590;51.462;6.692;2023-05-20T14:43:23;101690.06;;;20.86;41.76
9110;BME280;4590;51.462;6.692;2023-05-20T14:45:48;101670.25;;;20.91;42.04
9110;BME280;4590;51.462;6.692;2023-05-20T14:48:14;101670.06;;;20.72;41.79
9110;BME280;4590;51.462;6.692;2023-05-20T14:50:40;101677.91;;;20.94;41.40
9110;BME280;4590;51.462;6.692;2023-05-20T14:53:05;101668.03;;;20.85;41.62
9110;BME280;4590;51.462;6.692;2023-05-20T14:55:31;101656.81;;;20.97;41.46
9110;BME280;4590;51.462;6.692;2023-05-20T14:57:58;101660.78;;;20.96;41.92
9110;BME280;4590;51.462;6.692;2023-05-20T15:00:37;101670.09;;;21.00;41.80
9110;BME280;4590;51.462;6.692;2023-05-20T15:03:04;101671.03;;;21.04;41.51
9110;BME280;4590;51.462;6.692;2023-05-20T15:05:30;101664.72;;;20.95;41.76
9110;BME280;4590;51.462;6.692;2023-05-20T15:07:56;101678.13;;;21.01;41.73
9110;BME280;4590;51.462;6.692;2023-05-20T15:10:23;101669.19;;;20.84;41.45
9110;BME280;4590;51.462;6.692;2023-05-20T15:12:48;101677.72;;;20.87;41.68
9110;BME280;4590;51.462;6.692;2023-05-20T15:15:15;101671.66;;;20.85;41.33
9110;BME280;4590;51.462;6.692;2023-05-20T15:17:53;101668.19;;;20.76;41.15
9110;BME280;4590;51.462;6.692;2023-05-20T15:20:20;101672.00;;;20.84;41.48
9110;BME280;4590;51.462;6.692;2023-05-20T15:22:46;101665.81;;;20.90;41.08
9110;BME280;4590;51.462;6.692;2023-05-20T15:25:12;101673.75;;;20.88;40.97
9110;BME280;4590;51.462;6.692;2023-05-20T15:27:43;101667.09;;;20.81;40.59
9110;BME280;4590;51.462;6.692;2023-05-20T15:30:09;101667.84;;;20.78;41.31
9110;BME280;4590;51.462;6.692;2023-05-20T15:32:35;101677.28;;;20.73;41.11
9110;BME280;4590;51.462;6.692;2023-05-20T15:35:00;101676.34;;;20.69;41.56
9110;BME280;4590;51.462;6.692;2023-05-20T15:37:27;101677.53;;;20.56;41.43
9110;BME280;4590;51.462;6.692;2023-05-20T15:40:15;101665.19;;;20.57;41.54
9110;BME280;4590;51.462;6.692;2023-05-20T15:42:40;101683.00;;;20.52;41.78
9110;BME280;4590;51.462;6.692;2023-05-20T15:45:10;101677.91;;;20.42;41.92
9110;BME280;4590;51.462;6.692;2023-05-20T15:47:36;101684.41;;;20.46;41.82
9110;BME280;4590;51.462;6.692;2023-05-20T15:50:02;101677.31;;;20.37;41.69
9110;BME280;4590;51.462;6.692;2023-05-20T15:52:30;101684.31;;;20.43;41.88
9110;BME280;4590;51.462;6.692;2023-05-20T15:54:56;101678.13;;;20.37;41.92
9110;BME280;4590;51.462;6.692;2023-05-20T15:57:22;101665.06;;;20.29;42.05
9110;BME280;4590;51.462;6.692;2023-05-20T15:59:48;101675.66;;;20.23;42.19
9110;BME280;4590;51.462;6.692;2023-05-20T16:02:13;101668.78;;;20.21;42.45
9110;BME280;4590;51.462;6.692;2023-05-20T16:04:43;101667.97;;;20.20;42.33
9110;BME280;4590;51.462;6.692;2023-05-20T16:07:09;101653.78;;;20.25;42.56
9110;BME280;4590;51.462;6.692;2023-05-20T16:09:34;101657.03;;;20.27;42.50
9110;BME280;4590;51.462;6.692;2023-05-20T16:12:01;101653.53;;;20.18;43.13
9110;BME280;4590;51.462;6.692;2023-05-20T16:14:28;101660.41;;;20.21;42.73
9110;BME280;4590;51.462;6.692;2023-05-20T16:16:54;101664.13;;;20.25;42.80
9110;BME280;4590;51.462;6.692;2023-05-20T16:19:21;101664.47;;;20.23;42.75
9110;BME280;4590;51.462;6.692;2023-05-20T16:21:48;101658.31;;;20.18;42.57
9110;BME280;4590;51.462;6.692;2023-05-20T16:24:23;101661.00;;;20.14;42.85
9110;BME280;4590;51.462;6.692;2023-05-20T16:26:52;101658.22;;;20.14;42.62
9110;BME280;4590;51.462;6.692;2023-05-20T16:29:18;101655.50;;;20.18;42.52
9110;BME280;4590;51.462;6.692;2023-05-20T16:31:43;101657.47;;;20.17;42.63
9110;BME280;4590;51.462;6.692;2023-05-20T16:34:10;101651.06;;;20.17;42.78
9110;BME280;4590;51.462;6.692;2023-05-20T16:36:36;101665.94;;;19.84;43.68
9110;BME280;4590;51.462;6.692;2023-05-20T16:39:01;101653.19;;;19.95;43.29
9110;BME280;4590;51.462;6.692;2023-05-20T16:41:27;101655.84;;;19.92;43.25
9110;BME280;4590;51.462;6.692;2023-05-20T16:43:53;101646.44;;;19.96;43.12
9110;BME280;4590;51.462;6.692;2023-05-20T16:46:18;101645.84;;;19.91;43.70
9110;BME280;4590;51.462;6.692;2023-05-20T16:48:44;101662.25;;;20.05;42.96
9110;BME280;4590;51.462;6.692;2023-05-20T16:51:09;101674.22;;;19.81;43.61
9110;BME280;4590;51.462;6.692;2023-05-20T16:53:54;101650.47;;;19.87;43.50
9110;BME280;4590;51.462;6.692;2023-05-20T16:56:20;101655.59;;;19.85;43.59
9110;BME280;4590;51.462;6.692;2023-05-20T16:58:46;101664.00;;;19.97;43.58
9110;BME280;4590;51.462;6.692;2023-05-20T17:01:14;101666.09;;;20.00;43.26
9110;BME280;4590;51.462;6.692;2023-05-20T17:03:40;101665.88;;;19.93;43.29
9110;BME280;4590;51.462;6.692;2023-05-20T17:06:05;101666.22;;;19.91;43.91
9110;BME280;4590;51.462;6.692;2023-05-20T17:08:31;101675.72;;;19.78;44.28
9110;BME280;4590;51.462;6.692;2023-05-20T17:10:57;101688.28;;;19.84;44.34
9110;BME280;4590;51.462;6.692;2023-05-20T17:16:51;101684.94;;;19.79;44.44
9110;BME280;4590;51.462;6.692;2023-05-20T17:19:16;101701.69;;;19.79;44.14
9110;BME280;4590;51.462;6.692;2023-05-20T17:21:42;101687.47;;;19.72;44.41
9110;BME280;4590;51.462;6.692;2023-05-20T17:24:14;101682.69;;;19.72;44.19
9110;BME280;4590;51.462;6.692;2023-05-20T17:26:39;101700.47;;;19.68;44.45
9110;BME280;4590;51.462;6.692;2023-05-20T17:29:05;101702.22;;;19.60;44.50
9110;BME280;4590;51.462;6.692;2023-05-20T17:38:22;101692.34;;;19.42;45.30
9110;BME280;4590;51.462;6.692;2023-05-20T17:40:53;101696.28;;;19.41;45.30
9110;BME280;4590;51.462;6.692;2023-05-20T17:43:19;101690.22;;;19.39;45.56
9110;BME280;4590;51.462;6.692;2023-05-20T17:48:52;101684.44;;;19.44;45.39
9110;BME280;4590;51.462;6.692;2023-05-20T17:54:44;101687.06;;;19.28;45.70
9110;BME280;4590;51.462;6.692;2023-05-20T17:57:18;101690.81;;;19.32;45.49
9110;BME280;4590;51.462;6.692;2023-05-20T17:59:45;101687.34;;;19.35;45.74
9110;BME280;4590;51.462;6.692;2023-05-20T18:02:14;101691.00;;;19.27;45.82
9110;BME280;4590;51.462;6.692;2023-05-20T18:04:41;101685.22;;;19.32;45.69
9110;BME280;4590;51.462;6.692;2023-05-20T18:07:07;101697.69;;;19.35;45.88
9110;BME280;4590;51.462;6.692;2023-05-20T18:09:33;101690.47;;;19.34;46.01
9110;BME280;4590;51.462;6.692;2023-05-20T18:11:58;101696.53;;;19.36;45.58
9110;BME280;4590;51.462;6.692;2023-05-20T18:14:44;101697.41;;;19.27;45.66
9110;BME280;4590;51.462;6.692;2023-05-20T18:17:10;101696.72;;;19.31;45.88
9110;BME280;4590;51.462;6.692;2023-05-20T18:22:29;101682.19;;;19.04;47.19
9110;BME280;4590;51.462;6.692;2023-05-20T18:24:57;101687.50;;;19.18;46.09
9110;BME280;4590;51.462;6.692;2023-05-20T18:30:59;101684.91;;;19.13;46.35
9110;BME280;4590;51.462;6.692;2023-05-20T18:33:29;101697.84;;;19.17;46.21
9110;BME280;4590;51.462;6.692;2023-05-20T18:36:27;101687.16;;;19.19;46.16
9110;BME280;4590;51.462;6.692;2023-05-20T18:42:00;101687.00;;;19.16;46.64
9110;BME280;4590;51.462;6.692;2023-05-20T18:44:26;101685.72;;;19.13;46.58
9110;BME280;4590;51.462;6.692;2023-05-20T18:50:26;101695.38;;;19.16;46.72
9110;BME280;4590;51.462;6.692;2023-05-20T18:52:52;101692.13;;;19.14;46.56
9110;BME280;4590;51.462;6.692;2023-05-20T18:55:19;101691.97;;;19.10;46.95
9110;BME280;4590;51.462;6.692;2023-05-20T18:57:45;101693.94;;;19.10;47.02
9110;BME280;4590;51.462;6.692;2023-05-20T19:00:13;101702.66;;;19.08;47.00
9110;BME280;4590;51.462;6.692;2023-05-20T19:03:14;101706.72;;;18.90;47.53
9110;BME280;4590;51.462;6.692;2023-05-20T19:05:44;101697.50;;;18.98;47.26
9110;BME280;4590;51.462;6.692;2023-05-20T19:08:12;101699.94;;;19.00;46.97
9110;BME280;4590;51.462;6.692;2023-05-20T19:13:47;101711.63;;;18.93;47.28
9110;BME280;4590;51.462;6.692;2023-05-20T19:19:38;101694.50;;;18.82;47.82
9110;BME280;4590;51.462;6.692;2023-05-20T19:22:04;101695.31;;;18.83;47.61
9110;BME280;4590;51.462;6.692;2023-05-20T19:28:12;101694.75;;;18.69;48.33
9110;BME280;4590;51.462;6.692;2023-05-20T19:34:18;101697.59;;;18.60;48.53
9110;BME280;4590;51.462;6.692;2023-05-20T20:00:33;101706.72;;;18.31;49.46
9110;BME280;4590;51.462;6.692;2023-05-20T20:02:58;101709.34;;;18.36;49.20
9110;BME280;4590;51.462;6.692;2023-05-20T20:05:27;101716.72;;;18.32;49.79
9110;BME280;4590;51.462;6.692;2023-05-20T20:33:50;101717.53;;;17.95;50.80
9110;BME280;4590;51.462;6.692;2023-05-20T21:35:24;101678.84;;;17.29;53.22
9110;BME280;4590;51.462;6.692;2023-05-20T23:20:31;101579.41;;;16.57;56.52
9110;BME280;4590;51.462;6.692;2023-05-20T23:22:58;101583.34;;;16.56;56.41
9110;BME280;4590;51.462;6.692;2023-05-20T23:25:24;101583.00;;;16.58;56.85
9110;BME280;4590;51.462;6.692;2023-05-20T23:27:50;101577.94;;;16.60;56.45
9110;BME280;4590;51.462;6.692;2023-05-20T23:30:17;101576.31;;;16.59;56.69
9110;BME280;4590;51.462;6.692;2023-05-20T23:32:43;101580.41;;;16.61;56.64
9110;BME280;4590;51.462;6.692;2023-05-20T23:35:09;101573.22;;;16.60;56.56
9110;BME280;4590;51.462;6.692;2023-05-20T23:37:37;101575.16;;;16.60;56.86
9110;BME280;4590;51.462;6.692;2023-05-20T23:40:07;101569.13;;;16.58;56.92
9110;BME280;4590;51.462;6.692;2023-05-20T23:42:34;101553.25;;;16.58;56.61
9110;BME280;4590;51.462;6.692;2023-05-20T23:45:00;101559.16;;;16.57;56.88
9110;BME280;4590;51.462;6.692;2023-05-20T23:47:26;101550.97;;;16.43;58.33
9110;BME280;4590;51.462;6.692;2023-05-20T23:49:55;101545.09;;;16.53;56.69
9110;BME280;4590;51.462;6.692;2023-05-20T23:52:24;101552.63;;;16.53;56.81
9110;BME280;4590;51.462;6.692;2023-05-20T23:54:50;101548.88;;;16.48;56.90
9110;BME280;4590;51.462;6.692;2023-05-20T23:57:16;101545.56;;;16.38;57.82
9110;BME280;4590;51.462;6.692;2023-05-20T23:59:42;101538.56;;;16.40;57.18
